sensor_id;sensor_type;location;lat;lon;timestamp;P1;durP1;ratioP1;P2;durP2;ratioP2
57087;SDS011;42965;52.846;6.614;2023-12-20T00:02:25;17.83;;;2.97;;
57087;SDS011;42965;52.846;6.614;2023-12-20T00:04:52;12.88;;;2.72;;
57087;SDS011;42965;52.846;6.614;2023-12-20T00:07:19;11.93;;;2.80;;
57087;SDS011;42965;52.846;6.614;2023-12-20T00:09:45;14.45;;;2.67;;
57087;SDS011;42965;52.846;6.614;2023-12-20T00:12:11;12.23;;;2.67;;
57087;SDS011;42965;52.846;6.614;2023-12-20T00:14:37;13.40;;;3.17;;
57087;SDS011;42965;52.846;6.614;2023-12-20T00:17:04;11.93;;;2.33;;
57087;SDS011;42965;52.846;6.614;2023-12-20T00:19:30;11.65;;;2.35;;
57087;SDS011;42965;52.846;6.614;2023-12-20T00:21:59;15.93;;;2.97;;
57087;SDS011;42965;52.846;6.614;2023-12-20T00:24:25;17.70;;;2.53;;
57087;SDS011;42965;52.846;6.614;2023-12-20T00:26:52;16.67;;;2.47;;
57087;SDS011;42965;52.846;6.614;2023-12-20T00:29:18;14.25;;;2.88;;
57087;SDS011;42965;52.846;6.614;2023-12-20T00:31:44;14.68;;;2.65;;
57087;SDS011;42965;52.846;6.614;2023-12-20T00:34:10;10.25;;;2.47;;
57087;SDS011;42965;52.846;6.614;2023-12-20T00:36:39;13.20;;;2.53;;
57087;SDS011;42965;52.846;6.614;2023-12-20T00:39:09;10.90;;;2.63;;
57087;SDS011;42965;52.846;6.614;2023-12-20T00:41:35;17.85;;;3.15;;
57087;SDS011;42965;52.846;6.614;2023-12-20T00:44:01;15.75;;;3.22;;
57087;SDS011;42965;52.846;6.614;2023-12-20T00:46:27;13.93;;;2.58;;
57087;SDS011;42965;52.846;6.614;2023-12-20T00:49:13;19.42;;;4.05;;
57087;SDS011;42965;52.846;6.614;2023-12-20T00:51:40;13.43;;;2.75;;
57087;SDS011;42965;52.846;6.614;2023-12-20T00:54:26;27.25;;;3.50;;
57087;SDS011;42965;52.846;6.614;2023-12-20T00:56:54;19.77;;;2.92;;
57087;SDS011;42965;52.846;6.614;2023-12-20T00:59:21;18.95;;;3.38;;
57087;SDS011;42965;52.846;6.614;2023-12-20T01:01:47;13.20;;;3.08;;
57087;SDS011;42965;52.846;6.614;2023-12-20T01:04:13;16.45;;;3.28;;
57087;SDS011;42965;52.846;6.614;2023-12-20T01:06:43;20.70;;;3.97;;
57087;SDS011;42965;52.846;6.614;2023-12-20T01:09:10;11.80;;;3.05;;
57087;SDS011;42965;52.846;6.614;2023-12-20T01:11:37;17.23;;;3.17;;
57087;SDS011;42965;52.846;6.614;2023-12-20T01:14:03;15.07;;;3.10;;
57087;SDS011;42965;52.846;6.614;2023-12-20T01:16:49;13.07;;;2.85;;
57087;SDS011;42965;52.846;6.614;2023-12-20T01:19:17;18.63;;;3.42;;
57087;SDS011;42965;52.846;6.614;2023-12-20T01:21:43;15.23;;;2.85;;
57087;SDS011;42965;52.846;6.614;2023-12-20T01:24:09;18.33;;;3.72;;
57087;SDS011;42965;52.846;6.614;2023-12-20T01:26:39;22.00;;;3.40;;
57087;SDS011;42965;52.846;6.614;2023-12-20T01:29:05;21.52;;;3.28;;
57087;SDS011;42965;52.846;6.614;2023-12-20T01:31:32;21.33;;;3.40;;
57087;SDS011;42965;52.846;6.614;2023-12-20T01:33:58;27.65;;;4.22;;
57087;SDS011;42965;52.846;6.614;2023-12-20T01:36:25;18.60;;;3.65;;
57087;SDS011;42965;52.846;6.614;2023-12-20T01:38:51;16.33;;;3.13;;
57087;SDS011;42965;52.846;6.614;2023-12-20T01:41:18;15.55;;;3.55;;
57087;SDS011;42965;52.846;6.614;2023-12-20T01:43:44;14.07;;;2.78;;
57087;SDS011;42965;52.846;6.614;2023-12-20T01:46:10;17.27;;;3.00;;
57087;SDS011;42965;52.846;6.614;2023-12-20T01:48:38;23.35;;;3.78;;
57087;SDS011;42965;52.846;6.614;2023-12-20T01:51:04;16.33;;;3.20;;
57087;SDS011;42965;52.846;6.614;2023-12-20T01:53:31;23.38;;;3.75;;
57087;SDS011;42965;52.846;6.614;2023-12-20T01:55:58;20.27;;;3.70;;
57087;SDS011;42965;52.846;6.614;2023-12-20T01:58:25;13.55;;;3.40;;
57087;SDS011;42965;52.846;6.614;2023-12-20T02:00:52;15.75;;;3.47;;
57087;SDS011;42965;52.846;6.614;2023-12-20T02:03:19;21.83;;;3.30;;
57087;SDS011;42965;52.846;6.614;2023-12-20T02:05:46;23.63;;;4.35;;
57087;SDS011;42965;52.846;6.614;2023-12-20T02:08:13;27.42;;;4.25;;
57087;SDS011;42965;52.846;6.614;2023-12-20T02:10:40;15.00;;;3.83;;
57087;SDS011;42965;52.846;6.614;2023-12-20T02:13:07;16.35;;;3.03;;
57087;SDS011;42965;52.846;6.614;2023-12-20T02:15:33;15.55;;;3.00;;
57087;SDS011;42965;52.846;6.614;2023-12-20T02:18:02;15.45;;;2.92;;
57087;SDS011;42965;52.846;6.614;2023-12-20T02:20:30;18.02;;;3.63;;
57087;SDS011;42965;52.846;6.614;2023-12-20T02:22:56;21.85;;;3.60;;
57087;SDS011;42965;52.846;6.614;2023-12-20T02:25:22;22.15;;;3.53;;
57087;SDS011;42965;52.846;6.614;2023-12-20T02:27:49;24.10;;;3.08;;
57087;SDS011;42965;52.846;6.614;2023-12-20T02:30:16;20.58;;;3.70;;
57087;SDS011;42965;52.846;6.614;2023-12-20T02:32:43;20.00;;;3.83;;
57087;SDS011;42965;52.846;6.614;2023-12-20T02:35:09;20.90;;;3.88;;
57087;SDS011;42965;52.846;6.614;2023-12-20T02:37:35;26.15;;;3.85;;
57087;SDS011;42965;52.846;6.614;2023-12-20T02:40:21;12.85;;;3.15;;
57087;SDS011;42965;52.846;6.614;2023-12-20T02:42:47;28.88;;;3.83;;
57087;SDS011;42965;52.846;6.614;2023-12-20T02:45:14;14.77;;;4.07;;
57087;SDS011;42965;52.846;6.614;2023-12-20T02:47:40;20.35;;;3.40;;
57087;SDS011;42965;52.846;6.614;2023-12-20T02:50:07;23.00;;;3.75;;
57087;SDS011;42965;52.846;6.614;2023-12-20T02:52:33;25.60;;;4.40;;
57087;SDS011;42965;52.846;6.614;2023-12-20T02:55:00;20.85;;;3.92;;
57087;SDS011;42965;52.846;6.614;2023-12-20T02:57:26;21.60;;;4.63;;
57087;SDS011;42965;52.846;6.614;2023-12-20T02:59:53;21.77;;;4.40;;
57087;SDS011;42965;52.846;6.614;2023-12-20T03:02:19;15.68;;;3.70;;
57087;SDS011;42965;52.846;6.614;2023-12-20T03:04:45;23.48;;;4.43;;
57087;SDS011;42965;52.846;6.614;2023-12-20T03:07:12;23.35;;;3.90;;
57087;SDS011;42965;52.846;6.614;2023-12-20T03:09:38;24.75;;;4.65;;
57087;SDS011;42965;52.846;6.614;2023-12-20T03:12:05;26.30;;;3.55;;
57087;SDS011;42965;52.846;6.614;2023-12-20T03:14:31;22.48;;;4.25;;
57087;SDS011;42965;52.846;6.614;2023-12-20T03:16:57;24.02;;;4.47;;
57087;SDS011;42965;52.846;6.614;2023-12-20T03:19:43;25.95;;;4.93;;
57087;SDS011;42965;52.846;6.614;2023-12-20T03:22:10;23.92;;;4.63;;
57087;SDS011;42965;52.846;6.614;2023-12-20T03:24:36;30.00;;;4.45;;
57087;SDS011;42965;52.846;6.614;2023-12-20T03:27:05;22.08;;;4.57;;
57087;SDS011;42965;52.846;6.614;2023-12-20T03:29:31;22.80;;;4.47;;
57087;SDS011;42965;52.846;6.614;2023-12-20T03:31:57;22.80;;;4.57;;
57087;SDS011;42965;52.846;6.614;2023-12-20T03:34:23;23.98;;;5.22;;
57087;SDS011;42965;52.846;6.614;2023-12-20T03:36:50;26.05;;;5.22;;
57087;SDS011;42965;52.846;6.614;2023-12-20T03:39:16;28.77;;;4.72;;
57087;SDS011;42965;52.846;6.614;2023-12-20T03:41:42;24.27;;;4.07;;
57087;SDS011;42965;52.846;6.614;2023-12-20T03:44:08;21.83;;;4.13;;
57087;SDS011;42965;52.846;6.614;2023-12-20T03:46:34;24.02;;;4.82;;
57087;SDS011;42965;52.846;6.614;2023-12-20T03:49:00;31.42;;;5.35;;
57087;SDS011;42965;52.846;6.614;2023-12-20T03:51:27;25.70;;;4.53;;
57087;SDS011;42965;52.846;6.614;2023-12-20T03:53:53;29.67;;;5.30;;
57087;SDS011;42965;52.846;6.614;2023-12-20T03:56:19;30.02;;;5.07;;
57087;SDS011;42965;52.846;6.614;2023-12-20T03:58:48;21.50;;;4.20;;
57087;SDS011;42965;52.846;6.614;2023-12-20T04:01:14;21.30;;;4.28;;
57087;SDS011;42965;52.846;6.614;2023-12-20T04:03:41;25.23;;;4.68;;
57087;SDS011;42965;52.846;6.614;2023-12-20T04:06:07;34.03;;;4.90;;
57087;SDS011;42965;52.846;6.614;2023-12-20T04:08:33;30.90;;;5.05;;
57087;SDS011;42965;52.846;6.614;2023-12-20T04:10:59;32.22;;;6.75;;
57087;SDS011;42965;52.846;6.614;2023-12-20T04:13:26;28.48;;;5.57;;
57087;SDS011;42965;52.846;6.614;2023-12-20T04:15:53;31.80;;;5.60;;
57087;SDS011;42965;52.846;6.614;2023-12-20T04:18:19;31.90;;;5.72;;
57087;SDS011;42965;52.846;6.614;2023-12-20T04:20:45;26.98;;;5.00;;
57087;SDS011;42965;52.846;6.614;2023-12-20T04:23:12;37.85;;;5.68;;
57087;SDS011;42965;52.846;6.614;2023-12-20T04:25:38;38.38;;;6.15;;
57087;SDS011;42965;52.846;6.614;2023-12-20T04:28:04;33.67;;;5.18;;
57087;SDS011;42965;52.846;6.614;2023-12-20T04:30:31;30.23;;;5.07;;
57087;SDS011;42965;52.846;6.614;2023-12-20T04:32:58;29.75;;;5.82;;
57087;SDS011;42965;52.846;6.614;2023-12-20T04:35:24;31.80;;;6.20;;
57087;SDS011;42965;52.846;6.614;2023-12-20T04:37:50;29.23;;;6.85;;
57087;SDS011;42965;52.846;6.614;2023-12-20T04:40:19;30.60;;;5.43;;
57087;SDS011;42965;52.846;6.614;2023-12-20T04:42:46;24.60;;;4.80;;
57087;SDS011;42965;52.846;6.614;2023-12-20T04:45:12;21.73;;;4.50;;
57087;SDS011;42965;52.846;6.614;2023-12-20T04:47:44;23.52;;;5.28;;
57087;SDS011;42965;52.846;6.614;2023-12-20T04:50:12;31.73;;;5.35;;
57087;SDS011;42965;52.846;6.614;2023-12-20T04:52:38;27.73;;;5.32;;
57087;SDS011;42965;52.846;6.614;2023-12-20T04:55:05;34.30;;;6.28;;
57087;SDS011;42965;52.846;6.614;2023-12-20T04:57:31;28.30;;;6.43;;
57087;SDS011;42965;52.846;6.614;2023-12-20T04:59:58;32.35;;;6.28;;
57087;SDS011;42965;52.846;6.614;2023-12-20T05:02:24;26.00;;;5.72;;
57087;SDS011;42965;52.846;6.614;2023-12-20T05:04:50;27.52;;;5.25;;
57087;SDS011;42965;52.846;6.614;2023-12-20T05:07:17;26.60;;;5.65;;
57087;SDS011;42965;52.846;6.614;2023-12-20T05:09:43;31.10;;;6.70;;
57087;SDS011;42965;52.846;6.614;2023-12-20T05:12:09;28.42;;;5.35;;
57087;SDS011;42965;52.846;6.614;2023-12-20T05:14:36;27.40;;;5.47;;
57087;SDS011;42965;52.846;6.614;2023-12-20T05:17:03;28.95;;;5.53;;
57087;SDS011;42965;52.846;6.614;2023-12-20T05:19:29;23.27;;;4.63;;
57087;SDS011;42965;52.846;6.614;2023-12-20T05:21:56;29.92;;;5.38;;
57087;SDS011;42965;52.846;6.614;2023-12-20T05:24:24;28.75;;;6.55;;
57087;SDS011;42965;52.846;6.614;2023-12-20T05:26:50;27.20;;;5.50;;
57087;SDS011;42965;52.846;6.614;2023-12-20T05:29:16;25.75;;;5.20;;
57087;SDS011;42965;52.846;6.614;2023-12-20T05:31:42;33.80;;;6.07;;
57087;SDS011;42965;52.846;6.614;2023-12-20T05:34:09;33.15;;;5.80;;
57087;SDS011;42965;52.846;6.614;2023-12-20T05:36:38;34.40;;;5.22;;
57087;SDS011;42965;52.846;6.614;2023-12-20T05:39:04;36.03;;;5.70;;
57087;SDS011;42965;52.846;6.614;2023-12-20T05:41:31;23.70;;;5.57;;
57087;SDS011;42965;52.846;6.614;2023-12-20T05:44:17;26.38;;;5.88;;
57087;SDS011;42965;52.846;6.614;2023-12-20T05:46:43;31.05;;;6.00;;
57087;SDS011;42965;52.846;6.614;2023-12-20T05:49:09;33.13;;;5.82;;
57087;SDS011;42965;52.846;6.614;2023-12-20T05:51:36;18.05;;;4.72;;
57087;SDS011;42965;52.846;6.614;2023-12-20T05:54:03;20.25;;;4.70;;
57087;SDS011;42965;52.846;6.614;2023-12-20T05:56:31;31.00;;;6.40;;
57087;SDS011;42965;52.846;6.614;2023-12-20T05:58:57;30.67;;;6.55;;
57087;SDS011;42965;52.846;6.614;2023-12-20T06:01:24;25.00;;;5.45;;
57087;SDS011;42965;52.846;6.614;2023-12-20T06:03:51;28.52;;;5.18;;
57087;SDS011;42965;52.846;6.614;2023-12-20T06:06:17;35.13;;;6.63;;
57087;SDS011;42965;52.846;6.614;2023-12-20T06:08:43;21.08;;;4.93;;
57087;SDS011;42965;52.846;6.614;2023-12-20T06:11:10;27.70;;;5.93;;
57087;SDS011;42965;52.846;6.614;2023-12-20T06:13:37;25.25;;;6.05;;
57087;SDS011;42965;52.846;6.614;2023-12-20T06:16:05;24.52;;;4.95;;
57087;SDS011;42965;52.846;6.614;2023-12-20T06:18:32;30.00;;;5.55;;
57087;SDS011;42965;52.846;6.614;2023-12-20T06:20:59;27.75;;;5.25;;
57087;SDS011;42965;52.846;6.614;2023-12-20T06:23:26;23.40;;;5.45;;
57087;SDS011;42965;52.846;6.614;2023-12-20T06:25:53;27.75;;;5.18;;
57087;SDS011;42965;52.846;6.614;2023-12-20T06:28:19;26.33;;;5.22;;
57087;SDS011;42965;52.846;6.614;2023-12-20T06:30:46;33.78;;;6.45;;
57087;SDS011;42965;52.846;6.614;2023-12-20T06:33:15;28.27;;;5.50;;
57087;SDS011;42965;52.846;6.614;2023-12-20T06:35:41;27.80;;;4.90;;
57087;SDS011;42965;52.846;6.614;2023-12-20T06:38:07;19.85;;;4.13;;
57087;SDS011;42965;52.846;6.614;2023-12-20T06:40:34;20.80;;;5.22;;
57087;SDS011;42965;52.846;6.614;2023-12-20T06:43:21;22.77;;;4.63;;
57087;SDS011;42965;52.846;6.614;2023-12-20T06:45:48;26.85;;;5.53;;
57087;SDS011;42965;52.846;6.614;2023-12-20T06:48:14;29.25;;;5.53;;
57087;SDS011;42965;52.846;6.614;2023-12-20T06:50:40;20.10;;;4.38;;
57087;SDS011;42965;52.846;6.614;2023-12-20T06:53:07;27.02;;;5.30;;
57087;SDS011;42965;52.846;6.614;2023-12-20T06:55:34;20.88;;;5.70;;
57087;SDS011;42965;52.846;6.614;2023-12-20T06:58:03;30.70;;;5.80;;
57087;SDS011;42965;52.846;6.614;2023-12-20T07:00:30;28.95;;;5.15;;
57087;SDS011;42965;52.846;6.614;2023-12-20T07:02:56;29.20;;;4.68;;
57087;SDS011;42965;52.846;6.614;2023-12-20T07:05:22;25.83;;;5.13;;
57087;SDS011;42965;52.846;6.614;2023-12-20T07:07:49;21.13;;;4.75;;
57087;SDS011;42965;52.846;6.614;2023-12-20T07:10:15;29.85;;;5.20;;
57087;SDS011;42965;52.846;6.614;2023-12-20T07:12:41;22.92;;;5.22;;
57087;SDS011;42965;52.846;6.614;2023-12-20T07:15:09;23.67;;;5.45;;
57087;SDS011;42965;52.846;6.614;2023-12-20T07:17:37;24.17;;;6.03;;
57087;SDS011;42965;52.846;6.614;2023-12-20T07:20:03;25.08;;;5.10;;
57087;SDS011;42965;52.846;6.614;2023-12-20T07:22:33;32.22;;;6.18;;
57087;SDS011;42965;52.846;6.614;2023-12-20T07:24:59;24.85;;;5.45;;
57087;SDS011;42965;52.846;6.614;2023-12-20T07:27:26;22.52;;;5.90;;
57087;SDS011;42965;52.846;6.614;2023-12-20T07:29:52;26.85;;;5.25;;
57087;SDS011;42965;52.846;6.614;2023-12-20T07:32:19;25.08;;;5.97;;
57087;SDS011;42965;52.846;6.614;2023-12-20T07:34:45;26.20;;;4.45;;
57087;SDS011;42965;52.846;6.614;2023-12-20T07:37:13;27.85;;;5.90;;
57087;SDS011;42965;52.846;6.614;2023-12-20T07:39:40;30.52;;;6.07;;
57087;SDS011;42965;52.846;6.614;2023-12-20T07:42:08;20.20;;;5.15;;
57087;SDS011;42965;52.846;6.614;2023-12-20T07:44:34;22.58;;;5.15;;
57087;SDS011;42965;52.846;6.614;2023-12-20T07:47:04;23.35;;;4.90;;
57087;SDS011;42965;52.846;6.614;2023-12-20T07:49:30;23.35;;;5.30;;
57087;SDS011;42965;52.846;6.614;2023-12-20T07:51:57;31.30;;;6.25;;
57087;SDS011;42965;52.846;6.614;2023-12-20T07:54:23;28.40;;;5.88;;
57087;SDS011;42965;52.846;6.614;2023-12-20T07:56:50;30.67;;;5.18;;
57087;SDS011;42965;52.846;6.614;2023-12-20T07:59:16;23.98;;;5.22;;
57087;SDS011;42965;52.846;6.614;2023-12-20T08:01:42;21.85;;;4.63;;
57087;SDS011;42965;52.846;6.614;2023-12-20T08:04:09;19.67;;;5.10;;
57087;SDS011;42965;52.846;6.614;2023-12-20T08:06:35;28.42;;;4.80;;
57087;SDS011;42965;52.846;6.614;2023-12-20T08:09:01;27.67;;;6.50;;
57087;SDS011;42965;52.846;6.614;2023-12-20T08:11:48;25.35;;;5.32;;
57087;SDS011;42965;52.846;6.614;2023-12-20T08:14:15;28.73;;;5.95;;
57087;SDS011;42965;52.846;6.614;2023-12-20T08:16:41;29.92;;;4.75;;
57087;SDS011;42965;52.846;6.614;2023-12-20T08:19:08;26.88;;;6.30;;
57087;SDS011;42965;52.846;6.614;2023-12-20T08:21:34;28.95;;;5.35;;
57087;SDS011;42965;52.846;6.614;2023-12-20T08:24:01;26.15;;;5.68;;
57087;SDS011;42965;52.846;6.614;2023-12-20T08:26:27;25.00;;;4.90;;
57087;SDS011;42965;52.846;6.614;2023-12-20T08:28:53;25.10;;;5.82;;
57087;SDS011;42965;52.846;6.614;2023-12-20T08:31:20;19.25;;;4.43;;
57087;SDS011;42965;52.846;6.614;2023-12-20T08:33:47;22.95;;;4.68;;
57087;SDS011;42965;52.846;6.614;2023-12-20T08:36:14;26.90;;;5.90;;
57087;SDS011;42965;52.846;6.614;2023-12-20T08:38:43;25.50;;;5.57;;
57087;SDS011;42965;52.846;6.614;2023-12-20T08:41:09;27.55;;;5.43;;
57087;SDS011;42965;52.846;6.614;2023-12-20T08:43:36;25.23;;;6.30;;
57087;SDS011;42965;52.846;6.614;2023-12-20T08:46:05;28.35;;;6.38;;
57087;SDS011;42965;52.846;6.614;2023-12-20T08:48:31;25.35;;;6.53;;
57087;SDS011;42965;52.846;6.614;2023-12-20T08:51:00;27.20;;;5.05;;
57087;SDS011;42965;52.846;6.614;2023-12-20T08:53:27;27.83;;;6.28;;
57087;SDS011;42965;52.846;6.614;2023-12-20T08:55:53;19.02;;;4.57;;
57087;SDS011;42965;52.846;6.614;2023-12-20T08:58:29;32.05;;;8.52;;
57087;SDS011;42965;52.846;6.614;2023-12-20T09:01:15;26.85;;;4.90;;
57087;SDS011;42965;52.846;6.614;2023-12-20T09:03:42;22.88;;;4.20;;
57087;SDS011;42965;52.846;6.614;2023-12-20T09:06:08;17.38;;;4.43;;
57087;SDS011;42965;52.846;6.614;2023-12-20T09:08:35;27.88;;;5.57;;
57087;SDS011;42965;52.846;6.614;2023-12-20T09:11:01;24.98;;;4.22;;
57087;SDS011;42965;52.846;6.614;2023-12-20T09:13:47;20.90;;;4.82;;
57087;SDS011;42965;52.846;6.614;2023-12-20T09:16:14;24.40;;;5.63;;
57087;SDS011;42965;52.846;6.614;2023-12-20T09:18:42;29.35;;;5.75;;
57087;SDS011;42965;52.846;6.614;2023-12-20T09:21:08;28.55;;;5.47;;
57087;SDS011;42965;52.846;6.614;2023-12-20T09:23:34;22.73;;;4.53;;
57087;SDS011;42965;52.846;6.614;2023-12-20T09:26:02;20.58;;;4.90;;
57087;SDS011;42965;52.846;6.614;2023-12-20T09:28:29;30.33;;;4.97;;
57087;SDS011;42965;52.846;6.614;2023-12-20T09:30:55;23.15;;;4.28;;
57087;SDS011;42965;52.846;6.614;2023-12-20T09:33:23;19.98;;;4.63;;
57087;SDS011;42965;52.846;6.614;2023-12-20T09:35:50;21.75;;;4.57;;
57087;SDS011;42965;52.846;6.614;2023-12-20T09:38:16;25.40;;;4.68;;
57087;SDS011;42965;52.846;6.614;2023-12-20T09:40:43;25.65;;;3.97;;
57087;SDS011;42965;52.846;6.614;2023-12-20T09:43:16;20.48;;;4.68;;
57087;SDS011;42965;52.846;6.614;2023-12-20T09:45:48;18.77;;;4.60;;
57087;SDS011;42965;52.846;6.614;2023-12-20T09:48:19;15.00;;;3.50;;
57087;SDS011;42965;52.846;6.614;2023-12-20T09:50:46;10.88;;;2.17;;
57087;SDS011;42965;52.846;6.614;2023-12-20T09:53:14;4.93;;;1.90;;
57087;SDS011;42965;52.846;6.614;2023-12-20T09:55:41;7.38;;;1.90;;
57087;SDS011;42965;52.846;6.614;2023-12-20T09:58:08;10.13;;;1.63;;
57087;SDS011;42965;52.846;6.614;2023-12-20T10:00:34;10.45;;;2.72;;
57087;SDS011;42965;52.846;6.614;2023-12-20T10:03:01;9.55;;;2.53;;
57087;SDS011;42965;52.846;6.614;2023-12-20T10:05:29;11.55;;;2.30;;
57087;SDS011;42965;52.846;6.614;2023-12-20T10:07:57;9.95;;;3.47;;
57087;SDS011;42965;52.846;6.614;2023-12-20T10:10:24;5.72;;;1.40;;
57087;SDS011;42965;52.846;6.614;2023-12-20T10:13:01;7.22;;;1.60;;
57087;SDS011;42965;52.846;6.614;2023-12-20T10:15:32;8.60;;;1.63;;
57087;SDS011;42965;52.846;6.614;2023-12-20T10:17:59;9.00;;;1.63;;
57087;SDS011;42965;52.846;6.614;2023-12-20T10:20:27;10.65;;;1.60;;
57087;SDS011;42965;52.846;6.614;2023-12-20T10:23:00;9.27;;;1.48;;
57087;SDS011;42965;52.846;6.614;2023-12-20T10:25:27;10.25;;;1.60;;
57087;SDS011;42965;52.846;6.614;2023-12-20T10:28:12;9.35;;;1.88;;
57087;SDS011;42965;52.846;6.614;2023-12-20T10:30:40;7.05;;;1.40;;
57087;SDS011;42965;52.846;6.614;2023-12-20T10:33:07;10.48;;;1.45;;
57087;SDS011;42965;52.846;6.614;2023-12-20T10:35:34;12.82;;;1.80;;
57087;SDS011;42965;52.846;6.614;2023-12-20T10:38:04;11.27;;;2.03;;
57087;SDS011;42965;52.846;6.614;2023-12-20T10:40:33;14.48;;;1.65;;
57087;SDS011;42965;52.846;6.614;2023-12-20T10:43:02;10.63;;;1.60;;
57087;SDS011;42965;52.846;6.614;2023-12-20T10:45:29;7.47;;;1.45;;
57087;SDS011;42965;52.846;6.614;2023-12-20T10:47:56;9.77;;;1.58;;
57087;SDS011;42965;52.846;6.614;2023-12-20T10:50:25;8.38;;;1.90;;
57087;SDS011;42965;52.846;6.614;2023-12-20T10:52:54;9.18;;;1.80;;
57087;SDS011;42965;52.846;6.614;2023-12-20T10:55:23;10.38;;;2.03;;
57087;SDS011;42965;52.846;6.614;2023-12-20T10:58:06;12.32;;;2.15;;
57087;SDS011;42965;52.846;6.614;2023-12-20T11:00:36;9.65;;;1.55;;
57087;SDS011;42965;52.846;6.614;2023-12-20T11:03:08;10.00;;;1.70;;
57087;SDS011;42965;52.846;6.614;2023-12-20T11:11:04;13.48;;;2.13;;
57087;SDS011;42965;52.846;6.614;2023-12-20T11:13:54;9.18;;;2.30;;
57087;SDS011;42965;52.846;6.614;2023-12-20T11:17:09;11.18;;;2.25;;
57087;SDS011;42965;52.846;6.614;2023-12-20T11:22:26;13.07;;;1.95;;
57087;SDS011;42965;52.846;6.614;2023-12-20T11:28:13;12.43;;;2.63;;
57087;SDS011;42965;52.846;6.614;2023-12-20T11:33:25;15.30;;;1.92;;
57087;SDS011;42965;52.846;6.614;2023-12-20T11:35:57;10.20;;;1.90;;
57087;SDS011;42965;52.846;6.614;2023-12-20T11:38:35;11.53;;;1.87;;
57087;SDS011;42965;52.846;6.614;2023-12-20T11:41:05;10.30;;;2.03;;
57087;SDS011;42965;52.846;6.614;2023-12-20T11:43:32;13.18;;;1.90;;
57087;SDS011;42965;52.846;6.614;2023-12-20T11:46:05;11.23;;;2.38;;
57087;SDS011;42965;52.846;6.614;2023-12-20T11:48:39;16.55;;;2.13;;
57087;SDS011;42965;52.846;6.614;2023-12-20T11:51:25;10.40;;;2.72;;
57087;SDS011;42965;52.846;6.614;2023-12-20T11:53:52;11.85;;;1.95;;
57087;SDS011;42965;52.846;6.614;2023-12-20T11:56:19;11.32;;;1.92;;
57087;SDS011;42965;52.846;6.614;2023-12-20T11:58:45;9.88;;;2.05;;
57087;SDS011;42965;52.846;6.614;2023-12-20T12:01:12;10.48;;;2.30;;
57087;SDS011;42965;52.846;6.614;2023-12-20T12:03:39;13.48;;;2.88;;
57087;SDS011;42965;52.846;6.614;2023-12-20T12:06:17;18.73;;;6.40;;
57087;SDS011;42965;52.846;6.614;2023-12-20T12:08:44;15.48;;;3.53;;
57087;SDS011;42965;52.846;6.614;2023-12-20T12:11:10;13.43;;;2.60;;
57087;SDS011;42965;52.846;6.614;2023-12-20T12:13:37;8.48;;;1.88;;
57087;SDS011;42965;52.846;6.614;2023-12-20T12:16:03;20.98;;;2.58;;
57087;SDS011;42965;52.846;6.614;2023-12-20T12:18:30;12.50;;;2.55;;
57087;SDS011;42965;52.846;6.614;2023-12-20T12:21:01;12.00;;;2.72;;
57087;SDS011;42965;52.846;6.614;2023-12-20T12:23:29;10.70;;;2.67;;
57087;SDS011;42965;52.846;6.614;2023-12-20T12:25:55;11.20;;;2.40;;
57087;SDS011;42965;52.846;6.614;2023-12-20T12:28:22;15.07;;;2.55;;
57087;SDS011;42965;52.846;6.614;2023-12-20T12:30:57;13.55;;;2.70;;
57087;SDS011;42965;52.846;6.614;2023-12-20T12:33:25;11.57;;;1.93;;
57087;SDS011;42965;52.846;6.614;2023-12-20T12:35:51;11.00;;;2.67;;
57087;SDS011;42965;52.846;6.614;2023-12-20T12:38:21;13.13;;;2.95;;
57087;SDS011;42965;52.846;6.614;2023-12-20T12:40:49;9.20;;;1.97;;
57087;SDS011;42965;52.846;6.614;2023-12-20T12:43:15;12.05;;;2.15;;
57087;SDS011;42965;52.846;6.614;2023-12-20T12:45:42;11.80;;;2.20;;
57087;SDS011;42965;52.846;6.614;2023-12-20T12:48:09;15.20;;;2.00;;
57087;SDS011;42965;52.846;6.614;2023-12-20T12:50:35;10.90;;;3.03;;
57087;SDS011;42965;52.846;6.614;2023-12-20T12:53:01;12.50;;;2.65;;
57087;SDS011;42965;52.846;6.614;2023-12-20T12:55:28;10.60;;;2.40;;
57087;SDS011;42965;52.846;6.614;2023-12-20T12:57:54;7.72;;;1.92;;
57087;SDS011;42965;52.846;6.614;2023-12-20T13:00:23;14.23;;;3.47;;
57087;SDS011;42965;52.846;6.614;2023-12-20T13:02:51;9.77;;;2.25;;
57087;SDS011;42965;52.846;6.614;2023-12-20T13:05:38;8.90;;;2.40;;
57087;SDS011;42965;52.846;6.614;2023-12-20T13:08:08;13.73;;;2.65;;
57087;SDS011;42965;52.846;6.614;2023-12-20T13:10:37;10.85;;;2.42;;
57087;SDS011;42965;52.846;6.614;2023-12-20T13:13:04;16.52;;;2.85;;
57087;SDS011;42965;52.846;6.614;2023-12-20T13:15:30;9.65;;;1.77;;
57087;SDS011;42965;52.846;6.614;2023-12-20T13:17:56;12.02;;;2.25;;
57087;SDS011;42965;52.846;6.614;2023-12-20T13:20:25;8.45;;;1.58;;
57087;SDS011;42965;52.846;6.614;2023-12-20T13:22:52;8.18;;;2.28;;
57087;SDS011;42965;52.846;6.614;2023-12-20T13:25:18;79.38;;;56.47;;
57087;SDS011;42965;52.846;6.614;2023-12-20T13:27:44;8.00;;;2.53;;
57087;SDS011;42965;52.846;6.614;2023-12-20T13:30:17;9.68;;;2.70;;
57087;SDS011;42965;52.846;6.614;2023-12-20T13:32:44;10.00;;;1.90;;
57087;SDS011;42965;52.846;6.614;2023-12-20T13:35:10;12.18;;;2.40;;
57087;SDS011;42965;52.846;6.614;2023-12-20T13:37:38;11.27;;;2.30;;
57087;SDS011;42965;52.846;6.614;2023-12-20T13:40:04;11.93;;;1.92;;
57087;SDS011;42965;52.846;6.614;2023-12-20T13:42:32;11.60;;;2.35;;
57087;SDS011;42965;52.846;6.614;2023-12-20T13:44:59;11.52;;;2.65;;
57087;SDS011;42965;52.846;6.614;2023-12-20T13:47:25;13.10;;;2.25;;
57087;SDS011;42965;52.846;6.614;2023-12-20T13:49:51;12.95;;;2.05;;
57087;SDS011;42965;52.846;6.614;2023-12-20T13:52:17;14.32;;;2.90;;
57087;SDS011;42965;52.846;6.614;2023-12-20T13:55:04;11.98;;;2.35;;
57087;SDS011;42965;52.846;6.614;2023-12-20T13:57:35;10.88;;;2.20;;
57087;SDS011;42965;52.846;6.614;2023-12-20T14:00:04;15.13;;;2.40;;
57087;SDS011;42965;52.846;6.614;2023-12-20T14:02:33;11.27;;;2.20;;
57087;SDS011;42965;52.846;6.614;2023-12-20T14:05:00;15.10;;;2.42;;
57087;SDS011;42965;52.846;6.614;2023-12-20T14:07:33;13.80;;;2.08;;
57087;SDS011;42965;52.846;6.614;2023-12-20T14:10:20;10.07;;;1.85;;
57087;SDS011;42965;52.846;6.614;2023-12-20T14:12:46;13.52;;;1.75;;
57087;SDS011;42965;52.846;6.614;2023-12-20T14:15:12;11.32;;;2.58;;
57087;SDS011;42965;52.846;6.614;2023-12-20T14:17:39;11.55;;;1.98;;
57087;SDS011;42965;52.846;6.614;2023-12-20T14:20:07;6.90;;;1.70;;
57087;SDS011;42965;52.846;6.614;2023-12-20T14:22:54;16.13;;;2.33;;
57087;SDS011;42965;52.846;6.614;2023-12-20T14:25:21;9.77;;;1.67;;
57087;SDS011;42965;52.846;6.614;2023-12-20T14:27:48;9.68;;;2.17;;
57087;SDS011;42965;52.846;6.614;2023-12-20T14:30:15;16.25;;;1.77;;
57087;SDS011;42965;52.846;6.614;2023-12-20T14:32:42;9.23;;;2.13;;
57087;SDS011;42965;52.846;6.614;2023-12-20T14:35:10;11.18;;;1.92;;
57087;SDS011;42965;52.846;6.614;2023-12-20T14:38:00;12.87;;;2.03;;
57087;SDS011;42965;52.846;6.614;2023-12-20T14:40:26;7.95;;;1.25;;
57087;SDS011;42965;52.846;6.614;2023-12-20T14:42:52;10.00;;;2.40;;
57087;SDS011;42965;52.846;6.614;2023-12-20T14:45:19;8.57;;;1.80;;
57087;SDS011;42965;52.846;6.614;2023-12-20T14:47:45;11.65;;;2.00;;
57087;SDS011;42965;52.846;6.614;2023-12-20T14:50:13;11.68;;;2.28;;
57087;SDS011;42965;52.846;6.614;2023-12-20T14:52:44;11.25;;;1.80;;
57087;SDS011;42965;52.846;6.614;2023-12-20T14:55:12;11.98;;;1.90;;
57087;SDS011;42965;52.846;6.614;2023-12-20T14:57:39;7.15;;;1.85;;